createdAt,value
2018-05-17T00:01:37.384Z,12.83
2018-05-17T00:04:04.839Z,12.70
2018-05-17T00:06:32.293Z,13.30
2018-05-17T00:09:00.593Z,11.77
2018-05-17T00:11:28.063Z,11.30
2018-05-17T00:13:55.517Z,11.17
2018-05-17T00:16:22.989Z,11.30
2018-05-17T00:18:50.423Z,12.27
2018-05-17T00:21:17.862Z,12.70
2018-05-17T00:23:45.323Z,13.03
2018-05-17T00:26:12.769Z,12.57
2018-05-17T00:28:41.097Z,13.50
2018-05-17T00:31:08.530Z,12.73
2018-05-17T00:33:35.970Z,11.60
2018-05-17T00:36:03.419Z,13.00
2018-05-17T00:38:30.870Z,18.57
2018-05-17T00:40:59.090Z,12.20
2018-05-17T00:43:26.522Z,12.70
2018-05-17T00:45:53.971Z,11.17
2018-05-17T00:48:21.491Z,12.03
2018-05-17T00:50:48.891Z,11.73
2018-05-17T00:53:34.996Z,11.35
2018-05-17T00:56:02.433Z,10.83
2018-05-17T00:58:29.872Z,11.40
2018-05-17T01:00:58.100Z,13.33
2018-05-17T01:03:25.530Z,13.52
2018-05-17T01:05:52.986Z,11.80
2018-05-17T01:08:20.429Z,11.47
2018-05-17T01:10:48.634Z,10.87
2018-05-17T01:13:16.092Z,11.05
2018-05-17T01:15:43.554Z,10.13
2018-05-17T01:18:11.027Z,12.17
2018-05-17T01:20:39.455Z,10.87
2018-05-17T01:23:07.659Z,10.70
2018-05-17T01:25:35.102Z,11.17
2018-05-17T01:28:02.559Z,11.60
2018-05-17T01:30:30.008Z,12.57
2018-05-17T01:32:58.210Z,12.20
2018-05-17T01:35:25.661Z,12.77
2018-05-17T01:38:05.114Z,11.87
2018-05-17T01:40:32.560Z,11.90
2018-05-17T01:43:00.015Z,13.30
2018-05-17T01:45:27.472Z,13.73
2018-05-17T01:47:54.933Z,13.40
2018-05-17T01:50:22.366Z,12.33
2018-05-17T01:52:49.833Z,12.03
2018-05-17T01:55:17.282Z,15.73
2018-05-17T01:57:45.483Z,13.87
2018-05-17T02:00:12.948Z,14.37
2018-05-17T02:02:40.392Z,14.90
2018-05-17T02:05:07.939Z,17.33
2018-05-17T02:07:36.443Z,15.83
2018-05-17T02:10:03.875Z,16.40
2018-05-17T02:12:31.315Z,16.43
2018-05-17T02:14:59.508Z,14.37
2018-05-17T02:17:27.005Z,15.03
2018-05-17T02:19:54.447Z,14.93
2018-05-17T02:22:21.971Z,16.30
2018-05-17T02:24:49.338Z,17.37
2018-05-17T02:27:16.795Z,25.00
2018-05-17T02:29:44.244Z,19.07
2018-05-17T02:32:11.695Z,16.80
2018-05-17T02:34:39.997Z,17.87
2018-05-17T02:37:07.426Z,20.73
2018-05-17T02:39:35.649Z,19.07
2018-05-17T02:42:03.072Z,21.90
2018-05-17T02:44:30.527Z,20.03
2018-05-17T02:46:57.982Z,19.27
2018-05-17T02:49:26.204Z,19.40
2018-05-17T02:51:53.651Z,22.90
2018-05-17T02:54:26.985Z,22.00
2018-05-17T02:56:54.428Z,19.60
2018-05-17T02:59:21.872Z,21.30
2018-05-17T03:01:49.304Z,21.60
2018-05-17T03:04:16.767Z,19.57
2018-05-17T03:06:44.228Z,20.93
2018-05-17T03:09:11.683Z,19.80
2018-05-17T03:11:39.124Z,18.70
2018-05-17T03:14:07.507Z,19.80
2018-05-17T03:16:34.987Z,19.50
2018-05-17T03:19:02.426Z,19.63
2018-05-17T03:21:29.896Z,18.80
2018-05-17T03:23:57.346Z,18.67
2018-05-17T03:26:24.777Z,17.67
2018-05-17T03:28:52.232Z,18.13
2018-05-17T03:31:19.666Z,18.23
2018-05-17T03:33:47.896Z,19.63
2018-05-17T03:36:15.338Z,19.70
2018-05-17T03:38:42.813Z,22.97
2018-05-17T03:41:10.280Z,18.47
2018-05-17T03:43:37.721Z,18.83
2018-05-17T03:46:05.186Z,20.20
2018-05-17T03:48:32.641Z,20.15
2018-05-17T03:51:00.127Z,18.20
2018-05-17T03:53:27.555Z,19.97
2018-05-17T03:55:55.012Z,18.70
2018-05-17T03:58:22.478Z,20.00
2018-05-17T04:01:01.775Z,18.27
2018-05-17T04:03:41.227Z,18.70
2018-05-17T04:06:20.555Z,19.13
2018-05-17T04:08:47.989Z,19.92
2018-05-17T04:11:16.209Z,20.00
2018-05-17T04:13:43.642Z,19.90
2018-05-17T04:16:11.103Z,18.67
2018-05-17T04:18:39.510Z,19.23
2018-05-17T04:21:06.968Z,19.20
2018-05-17T04:23:44.690Z,18.33
2018-05-17T04:26:12.122Z,18.73
2018-05-17T04:28:39.566Z,17.80
2018-05-17T04:31:07.027Z,17.90
2018-05-17T04:33:34.467Z,18.83
2018-05-17T04:36:01.932Z,18.00
2018-05-17T04:38:29.356Z,19.67
2018-05-17T04:40:57.569Z,23.87
2018-05-17T04:43:25.742Z,21.97
2018-05-17T04:45:53.212Z,22.27
2018-05-17T04:48:20.645Z,20.20
2018-05-17T04:50:48.092Z,21.90
2018-05-17T04:53:15.539Z,22.40
2018-05-17T04:55:43.756Z,25.87
2018-05-17T04:58:11.186Z,26.67
2018-05-17T05:00:38.638Z,27.67
2018-05-17T05:03:06.088Z,29.83
2018-05-17T05:05:34.309Z,29.20
2018-05-17T05:08:02.529Z,29.60
2018-05-17T05:10:30.748Z,33.73
2018-05-17T05:12:58.195Z,34.53
2018-05-17T05:15:25.634Z,37.07
2018-05-17T05:17:53.079Z,37.10
2018-05-17T05:20:21.287Z,29.40
2018-05-17T05:22:48.743Z,35.60
2018-05-17T05:25:16.302Z,35.88
2018-05-17T05:27:44.432Z,35.47
2018-05-17T05:30:12.651Z,39.17
2018-05-17T05:32:40.100Z,41.20
2018-05-17T05:35:07.576Z,40.13
2018-05-17T05:37:35.058Z,52.23
2018-05-17T05:40:02.473Z,41.97
2018-05-17T05:42:29.937Z,48.93
2018-05-17T05:44:57.389Z,47.67
2018-05-17T05:47:24.858Z,53.07
2018-05-17T05:49:52.327Z,54.90
2018-05-17T05:52:19.775Z,51.60
2018-05-17T05:54:47.221Z,49.07
2018-05-17T05:57:14.666Z,54.53
2018-05-17T05:59:42.108Z,49.33
2018-05-17T06:02:10.311Z,57.20
2018-05-17T06:04:37.759Z,55.33
2018-05-17T06:07:05.213Z,60.13
2018-05-17T06:09:32.663Z,56.72
2018-05-17T06:12:00.113Z,57.93
2018-05-17T06:14:28.315Z,60.40
2018-05-17T06:16:55.780Z,62.07
2018-05-17T06:19:23.233Z,71.53
2018-05-17T06:21:50.671Z,62.63
2018-05-17T06:24:18.115Z,65.90
2018-05-17T06:26:46.319Z,60.43
2018-05-17T06:29:13.770Z,55.50
2018-05-17T06:31:41.217Z,50.93
2018-05-17T06:34:08.687Z,47.03
2018-05-17T06:36:36.132Z,47.77
2018-05-17T06:39:03.588Z,48.53
2018-05-17T06:41:31.029Z,48.27
2018-05-17T06:43:59.299Z,36.88
2018-05-17T06:46:26.699Z,32.50
2018-05-17T06:48:54.140Z,31.93
2018-05-17T06:51:21.578Z,29.40
2018-05-17T06:53:49.783Z,26.67
2018-05-17T06:56:17.223Z,26.33
2018-05-17T06:58:44.723Z,17.23
2018-05-17T07:01:12.258Z,15.40
2018-05-17T07:03:39.633Z,16.50
2018-05-17T07:06:07.070Z,15.45
2018-05-17T07:08:34.533Z,19.53
2018-05-17T07:11:01.980Z,17.50
2018-05-17T07:13:29.420Z,17.40
2018-05-17T07:15:56.869Z,18.03
2018-05-17T07:18:25.207Z,17.53
2018-05-17T07:20:52.548Z,19.63
2018-05-17T07:23:20.005Z,15.40
2018-05-17T07:25:47.470Z,17.97
2018-05-17T07:28:14.928Z,16.23
2018-05-17T07:30:42.375Z,16.60
2018-05-17T07:33:09.826Z,17.30
2018-05-17T07:35:37.271Z,15.03
2018-05-17T07:38:04.710Z,13.97
2018-05-17T07:40:32.172Z,13.07
2018-05-17T07:42:59.625Z,11.50
2018-05-17T07:45:27.828Z,11.40
2018-05-17T07:47:55.276Z,11.13
2018-05-17T07:50:22.734Z,12.23
2018-05-17T07:52:50.175Z,47.77
2018-05-17T07:55:17.628Z,15.47
2018-05-17T07:57:45.067Z,14.27
2018-05-17T08:00:13.290Z,17.60
2018-05-17T08:02:40.728Z,16.92
2018-05-17T08:05:10.328Z,15.53
2018-05-17T08:07:37.799Z,17.73
2018-05-17T08:10:05.246Z,16.50
2018-05-17T08:12:32.694Z,15.52
2018-05-17T08:15:00.138Z,17.13
2018-05-17T08:17:28.350Z,12.00
2018-05-17T08:19:55.793Z,11.70
2018-05-17T08:22:23.235Z,12.47
2018-05-17T08:24:51.454Z,14.83
2018-05-17T08:27:18.891Z,13.30
2018-05-17T08:29:46.340Z,14.50
2018-05-17T08:32:13.782Z,14.93
2018-05-17T08:34:42.938Z,16.90
2018-05-17T08:37:10.376Z,20.67
2018-05-17T08:39:37.836Z,28.23
2018-05-17T08:42:05.286Z,24.80
2018-05-17T08:44:32.730Z,25.47
2018-05-17T08:47:00.178Z,23.55
2018-05-17T08:49:27.634Z,26.77
2018-05-17T08:51:55.063Z,26.87
2018-05-17T08:54:23.372Z,29.60
2018-05-17T08:56:50.725Z,37.13
2018-05-17T08:59:18.203Z,33.90
2018-05-17T09:01:45.638Z,31.30
2018-05-17T09:04:13.093Z,37.30
2018-05-17T09:06:40.549Z,36.70
2018-05-17T09:09:07.982Z,35.30
2018-05-17T09:11:36.227Z,38.23
2018-05-17T09:14:03.658Z,37.22
2018-05-17T09:16:31.130Z,34.30
2018-05-17T09:18:58.579Z,37.83
2018-05-17T09:21:26.033Z,31.87
2018-05-17T09:23:53.480Z,36.80
2018-05-17T09:26:20.936Z,40.73
2018-05-17T09:28:48.386Z,39.30
2018-05-17T09:31:15.834Z,38.42
2018-05-17T09:33:43.287Z,37.40
2018-05-17T09:36:10.731Z,43.13
2018-05-17T09:38:38.944Z,39.10
2018-05-17T09:41:06.397Z,46.20
2018-05-17T09:43:33.875Z,37.10
2018-05-17T09:46:01.335Z,42.47
2018-05-17T09:48:28.775Z,41.60
2018-05-17T09:50:56.199Z,41.97
2018-05-17T09:53:24.403Z,41.17
2018-05-17T09:55:51.862Z,38.27
2018-05-17T09:58:19.299Z,38.10
2018-05-17T10:00:48.541Z,43.77
2018-05-17T10:03:15.988Z,39.93
2018-05-17T10:05:43.447Z,40.72
2018-05-17T10:08:10.886Z,36.47
2018-05-17T10:10:38.342Z,33.80
2018-05-17T10:13:05.804Z,41.20
2018-05-17T10:15:33.266Z,39.80
2018-05-17T10:18:00.706Z,35.27
2018-05-17T10:20:28.140Z,37.37
2018-05-17T10:22:56.371Z,35.07
2018-05-17T10:25:23.826Z,34.67
2018-05-17T10:27:51.271Z,40.07
2018-05-17T10:30:18.709Z,31.90
2018-05-17T10:32:46.159Z,32.90
2018-05-17T10:35:14.380Z,37.93
2018-05-17T10:37:41.830Z,42.93
2018-05-17T10:40:09.301Z,41.90
2018-05-17T10:42:36.758Z,38.57
2018-05-17T10:45:04.203Z,41.67
2018-05-17T10:47:31.673Z,37.42
2018-05-17T10:49:59.112Z,38.53
2018-05-17T10:52:26.584Z,33.10
2018-05-17T10:54:54.014Z,41.70
2018-05-17T10:57:21.468Z,36.13
2018-05-17T10:59:48.908Z,33.87
2018-05-17T11:02:16.352Z,39.53
2018-05-17T11:04:44.571Z,37.93
2018-05-17T11:07:12.055Z,39.63
2018-05-17T11:09:41.003Z,40.10
2018-05-17T11:12:08.662Z,38.05
2018-05-17T11:14:36.059Z,49.03
2018-05-17T11:17:03.492Z,37.57
2018-05-17T11:19:30.938Z,35.53
2018-05-17T11:22:00.336Z,38.45
2018-05-17T11:24:27.793Z,44.23
2018-05-17T11:26:55.242Z,34.50
2018-05-17T11:29:22.703Z,40.67
2018-05-17T11:31:50.147Z,36.80
2018-05-17T11:34:18.346Z,34.23
2018-05-17T11:36:45.792Z,35.67
2018-05-17T11:39:13.238Z,36.47
2018-05-17T11:41:40.676Z,35.63
2018-05-17T11:44:09.841Z,42.53
2018-05-17T11:46:37.271Z,35.30
2018-05-17T11:49:04.724Z,37.93
2018-05-17T11:51:32.200Z,41.50
2018-05-17T11:54:00.404Z,33.10
2018-05-17T11:56:27.847Z,42.28
2018-05-17T11:58:55.302Z,42.63
2018-05-17T12:01:22.796Z,32.90
2018-05-17T12:03:50.190Z,31.60
2018-05-17T12:06:18.664Z,32.57
2018-05-17T12:08:46.094Z,26.60
2018-05-17T12:11:18.097Z,32.83
2018-05-17T12:13:45.542Z,38.37
2018-05-17T12:16:12.978Z,32.77
2018-05-17T12:18:40.424Z,26.55
2018-05-17T12:21:08.628Z,28.70
2018-05-17T12:23:36.087Z,30.60
2018-05-17T12:26:03.511Z,29.83
2018-05-17T12:28:32.448Z,25.50
2018-05-17T12:30:59.885Z,28.03
2018-05-17T12:33:27.339Z,24.25
2018-05-17T12:35:54.779Z,32.47
2018-05-17T12:38:23.014Z,27.30
2018-05-17T12:40:50.467Z,34.17
2018-05-17T12:43:17.918Z,27.73
2018-05-17T12:45:45.376Z,29.33
2018-05-17T12:48:12.839Z,26.83
2018-05-17T12:50:40.279Z,26.80
2018-05-17T12:53:07.733Z,34.70
2018-05-17T12:55:35.208Z,28.50
2018-05-17T12:58:02.647Z,28.77
2018-05-17T13:00:30.106Z,24.73
2018-05-17T13:02:57.547Z,26.80
2018-05-17T13:05:25.175Z,28.00
2018-05-17T13:07:52.614Z,27.13
2018-05-17T13:10:20.063Z,25.17
2018-05-17T13:12:47.503Z,21.37
2018-05-17T13:15:14.960Z,29.33
2018-05-17T13:17:42.396Z,30.67
2018-05-17T13:20:09.841Z,20.23
2018-05-17T13:22:37.279Z,25.67
2018-05-17T13:25:05.515Z,22.17
2018-05-17T13:27:32.959Z,27.03
2018-05-17T13:30:00.416Z,25.67
2018-05-17T13:32:27.862Z,23.00
2018-05-17T13:34:55.303Z,26.53
2018-05-17T13:37:22.820Z,31.30
2018-05-17T13:39:50.976Z,24.40
2018-05-17T13:42:18.423Z,30.40
2018-05-17T13:44:45.868Z,32.80
2018-05-17T13:47:13.324Z,20.67
2018-05-17T13:49:40.780Z,26.30
2018-05-17T13:52:08.238Z,24.70
2018-05-17T13:54:35.683Z,23.43
2018-05-17T13:57:03.154Z,29.03
2018-05-17T13:59:31.377Z,25.83
2018-05-17T14:01:58.838Z,33.43
2018-05-17T14:04:26.344Z,24.03
2018-05-17T14:06:53.856Z,30.73
2018-05-17T14:09:21.259Z,25.17
2018-05-17T14:11:48.699Z,29.30
2018-05-17T14:14:16.132Z,32.10
2018-05-17T14:16:44.349Z,28.73
2018-05-17T14:19:11.796Z,26.37
2018-05-17T14:21:39.241Z,30.00
2018-05-17T14:24:06.687Z,39.43
2018-05-17T14:26:34.917Z,33.83
2018-05-17T14:29:02.350Z,34.73
2018-05-17T14:31:30.943Z,31.73
2018-05-17T14:33:58.402Z,35.27
2018-05-17T14:36:25.879Z,26.40
2018-05-17T14:38:54.124Z,28.60
2018-05-17T14:41:21.584Z,26.20
2018-05-17T14:43:49.042Z,25.75
2018-05-17T14:46:16.499Z,31.53
2018-05-17T14:48:43.940Z,32.47
2018-05-17T14:51:11.390Z,26.93
2018-05-17T14:53:38.840Z,25.57
2018-05-17T14:56:07.099Z,28.70
2018-05-17T14:58:34.523Z,24.50
2018-05-17T15:01:01.995Z,22.80
2018-05-17T15:03:29.433Z,29.20
2018-05-17T15:05:57.005Z,26.92
2018-05-17T15:08:24.456Z,27.67
2018-05-17T15:10:51.904Z,26.20
2018-05-17T15:13:19.358Z,27.57
2018-05-17T15:15:46.842Z,25.93
2018-05-17T15:18:14.285Z,28.57
2018-05-17T15:20:41.727Z,33.27
2018-05-17T15:23:09.199Z,25.97
2018-05-17T15:25:36.635Z,27.63
2018-05-17T15:28:04.098Z,24.70
2018-05-17T15:30:31.548Z,27.83
2018-05-17T15:32:58.998Z,25.13
2018-05-17T15:35:27.000Z,22.10
2018-05-17T15:37:54.435Z,24.30
2018-05-17T15:40:21.904Z,25.52
2018-05-17T15:42:49.352Z,21.23
2018-05-17T15:45:16.803Z,32.33
2018-05-17T15:47:44.262Z,21.47
2018-05-17T15:50:12.471Z,21.83
2018-05-17T15:52:39.920Z,22.43
2018-05-17T15:55:07.353Z,20.70
2018-05-17T15:57:34.823Z,16.67
2018-05-17T16:00:02.260Z,15.63
2018-05-17T16:02:29.823Z,18.20
2018-05-17T16:04:57.250Z,20.87
2018-05-17T16:07:25.471Z,15.85
2018-05-17T16:09:52.905Z,19.80
2018-05-17T16:12:20.368Z,21.23
2018-05-17T16:14:47.835Z,19.97
2018-05-17T16:17:15.275Z,17.77
2018-05-17T16:19:42.740Z,14.40
2018-05-17T16:22:10.187Z,21.17
2018-05-17T16:24:37.634Z,19.47
2018-05-17T16:27:05.837Z,13.97
2018-05-17T16:29:33.280Z,15.77
2018-05-17T16:32:00.733Z,14.07
2018-05-17T16:34:28.180Z,17.70
2018-05-17T16:36:55.634Z,13.62
2018-05-17T16:39:23.864Z,14.63
2018-05-17T16:41:51.315Z,13.70
2018-05-17T16:44:18.779Z,14.60
2018-05-17T16:46:46.219Z,14.30
2018-05-17T16:49:13.680Z,11.38
2018-05-17T16:51:41.121Z,14.50
2018-05-17T16:54:08.631Z,16.27
2018-05-17T16:56:35.994Z,17.43
2018-05-17T16:59:04.223Z,14.77
2018-05-17T17:01:32.198Z,17.08
2018-05-17T17:03:59.658Z,18.97
2018-05-17T17:06:27.091Z,14.80
2018-05-17T17:08:54.539Z,15.13
2018-05-17T17:11:21.984Z,16.37
2018-05-17T17:13:50.194Z,19.93
2018-05-17T17:16:17.635Z,15.07
2018-05-17T17:18:45.196Z,15.00
2018-05-17T17:21:12.638Z,18.27
2018-05-17T17:23:41.024Z,15.60
2018-05-17T17:26:08.453Z,15.70
2018-05-17T17:28:36.681Z,18.77
2018-05-17T17:31:04.136Z,17.40
2018-05-17T17:33:31.570Z,18.13
2018-05-17T17:35:59.036Z,20.97
2018-05-17T17:38:26.507Z,20.70
2018-05-17T17:40:53.984Z,20.70
2018-05-17T17:43:21.412Z,20.73
2018-05-17T17:45:48.867Z,19.97
2018-05-17T17:48:16.306Z,19.40
2018-05-17T17:50:43.746Z,20.70
2018-05-17T17:53:11.961Z,25.35
2018-05-17T17:55:39.430Z,23.50
2018-05-17T17:58:06.874Z,24.73
2018-05-17T18:00:34.315Z,23.23
2018-05-17T18:03:01.754Z,23.30
2018-05-17T18:05:30.086Z,26.60
2018-05-17T18:07:57.440Z,23.67
2018-05-17T18:10:24.890Z,29.53
2018-05-17T18:12:52.348Z,25.13
2018-05-17T18:15:19.787Z,22.07
2018-05-17T18:17:47.241Z,23.50
2018-05-17T18:20:14.678Z,21.90
2018-05-17T18:22:42.886Z,18.77
2018-05-17T18:25:10.328Z,25.03
2018-05-17T18:27:37.788Z,19.92
2018-05-17T18:30:05.248Z,22.27
2018-05-17T18:32:32.766Z,31.97
2018-05-17T18:35:00.167Z,24.53
2018-05-17T18:37:27.705Z,22.70
2018-05-17T18:39:55.136Z,23.23
2018-05-17T18:42:23.364Z,21.07
2018-05-17T18:44:50.912Z,23.10
2018-05-17T18:47:18.265Z,20.23
2018-05-17T18:49:45.733Z,23.33
2018-05-17T18:52:13.162Z,21.53
2018-05-17T18:54:42.393Z,19.30
2018-05-17T18:57:09.837Z,19.57
2018-05-17T18:59:38.433Z,20.40
2018-05-17T19:02:05.876Z,17.67
2018-05-17T19:04:33.331Z,23.37
2018-05-17T19:07:00.778Z,22.70
2018-05-17T19:09:28.219Z,24.40
2018-05-17T19:11:56.482Z,19.57
2018-05-17T19:14:23.918Z,26.17
2018-05-17T19:16:51.397Z,21.13
2018-05-17T19:19:18.831Z,23.47
2018-05-17T19:21:46.282Z,23.80
2018-05-17T19:24:14.494Z,20.80
2018-05-17T19:26:42.700Z,21.60
2018-05-17T19:29:10.157Z,27.93
2018-05-17T19:31:37.660Z,22.17
2018-05-17T19:34:05.062Z,18.15
2018-05-17T19:36:32.512Z,20.70
2018-05-17T19:39:00.716Z,22.20
2018-05-17T19:41:28.161Z,20.33
2018-05-17T19:43:55.610Z,27.60
2018-05-17T19:46:23.060Z,22.87
2018-05-17T19:48:51.292Z,20.90
2018-05-17T19:51:18.737Z,21.57
2018-05-17T19:53:46.195Z,22.87
2018-05-17T19:56:13.653Z,22.03
2018-05-17T19:58:41.095Z,20.37
2018-05-17T20:01:08.532Z,25.47
2018-05-17T20:03:35.973Z,31.73
2018-05-17T20:06:04.175Z,23.27
2018-05-17T20:08:31.622Z,24.63
2018-05-17T20:10:59.066Z,23.50
2018-05-17T20:13:27.287Z,21.50
2018-05-17T20:15:55.554Z,21.33
2018-05-17T20:18:23.016Z,16.92
2018-05-17T20:20:50.463Z,27.93
2018-05-17T20:23:17.928Z,19.30
2018-05-17T20:25:45.378Z,19.80
2018-05-17T20:28:12.940Z,21.40
2018-05-17T20:30:40.301Z,26.23
2018-05-17T20:33:07.747Z,24.90
2018-05-17T20:35:35.207Z,25.60
2018-05-17T20:38:02.656Z,24.83
2018-05-17T20:40:30.102Z,24.23
2018-05-17T20:42:57.551Z,19.50
2018-05-17T20:45:24.999Z,23.00
2018-05-17T20:47:53.203Z,25.13
2018-05-17T20:50:20.652Z,26.37
2018-05-17T20:52:48.091Z,20.37
2018-05-17T20:55:15.570Z,21.47
2018-05-17T20:57:43.003Z,21.63
2018-05-17T21:00:11.214Z,22.77
2018-05-17T21:02:38.659Z,22.23
2018-05-17T21:05:06.208Z,18.73
2018-05-17T21:07:33.654Z,20.90
2018-05-17T21:10:01.859Z,24.93
2018-05-17T21:12:29.308Z,21.53
2018-05-17T21:14:56.748Z,22.90
2018-05-17T21:17:24.198Z,24.37
2018-05-17T21:19:52.427Z,27.92
2018-05-17T21:22:19.904Z,25.03
2018-05-17T21:24:47.360Z,20.37
2018-05-17T21:27:14.887Z,21.30
2018-05-17T21:29:42.268Z,20.80
2018-05-17T21:32:11.233Z,23.60
2018-05-17T21:34:38.664Z,27.10
2018-05-17T21:37:06.120Z,25.80
2018-05-17T21:39:33.617Z,25.07
2018-05-17T21:42:01.011Z,23.30
2018-05-17T21:44:29.222Z,21.40
2018-05-17T21:46:56.710Z,19.63
2018-05-17T21:49:24.139Z,20.07
2018-05-17T21:51:51.592Z,24.20
2018-05-17T21:54:19.017Z,19.83
2018-05-17T21:56:47.236Z,23.70
2018-05-17T21:59:14.675Z,18.20
2018-05-17T22:01:42.114Z,16.73
2018-05-17T22:04:10.326Z,21.20
2018-05-17T22:06:37.788Z,21.27
2018-05-17T22:09:05.269Z,17.50
2018-05-17T22:11:32.719Z,18.90
2018-05-17T22:14:00.151Z,18.73
2018-05-17T22:16:27.597Z,19.60
2018-05-17T22:18:55.027Z,19.47
2018-05-17T22:21:23.269Z,19.05
2018-05-17T22:23:50.704Z,19.53
2018-05-17T22:26:18.156Z,22.53
2018-05-17T22:28:45.592Z,21.37
2018-05-17T22:31:13.047Z,21.60
2018-05-17T22:33:40.507Z,20.02
2018-05-17T22:36:08.839Z,19.23
2018-05-17T22:38:36.276Z,23.90
2018-05-17T22:41:03.724Z,21.47
2018-05-17T22:43:31.158Z,25.33
2018-05-17T22:45:59.380Z,21.83
2018-05-17T22:48:26.835Z,19.80
2018-05-17T22:50:54.277Z,17.87
2018-05-17T22:53:21.714Z,21.73
2018-05-17T22:55:49.170Z,21.40
2018-05-17T22:58:28.636Z,21.53
2018-05-17T23:00:56.071Z,23.03
2018-05-17T23:03:23.527Z,22.67
2018-05-17T23:05:50.967Z,23.62
2018-05-17T23:08:18.418Z,20.83
2018-05-17T23:10:46.615Z,22.03
2018-05-17T23:13:14.151Z,22.37
2018-05-17T23:15:41.514Z,21.30
2018-05-17T23:18:08.963Z,23.33
2018-05-17T23:20:37.206Z,23.27
2018-05-17T23:23:06.147Z,17.90
2018-05-17T23:25:33.585Z,22.23
2018-05-17T23:28:01.801Z,30.43
2018-05-17T23:30:29.243Z,25.57
2018-05-17T23:32:56.695Z,20.47
2018-05-17T23:35:24.131Z,22.40
2018-05-17T23:37:52.342Z,21.53
2018-05-17T23:40:31.466Z,22.53
2018-05-17T23:42:58.919Z,20.77
2018-05-17T23:45:26.366Z,25.33
2018-05-17T23:47:53.798Z,17.83
2018-05-17T23:50:22.006Z,21.63
2018-05-17T23:52:49.444Z,22.53
2018-05-17T23:55:16.897Z,21.90
2018-05-17T23:57:45.103Z,17.80
